SBPK/PET METAR and TAF weather

Enter ICAO airport designator
Station Type Date Time Source
SBPK METAR 2021/03/04 20:00 UTC NOAA

SBPK 042000Z 07005KT 8000 -TSRA SCT010 BKN030CB 24/23 Q1008


Station Type Date Time Source
SBPK Decoded METAR 2021/03/04 20:00 UTC NOAA

Pelotas, Brazil (SBPK) 31-52S 052-21W 13M
Mar 04, 2021 - 03:00 PM EST / 2021.03.04 2000 UTC
Wind: from the ENE (070 degrees) at 6 MPH (5 KT):0
Visibility: 4 mile(s):0
Sky conditions: mostly cloudy
Weather: light rain with thunder; Cumulonimbus clouds observed
Temperature: 75 F (24 C)
Dew Point: 73 F (23 C)
Relative Humidity: 94%
Pressure (altimeter): 29.77 in. Hg (1008 hPa)
ob: SBPK 042000Z 07005KT 8000 -TSRA SCT010 BKN030CB 24/23 Q1008
cycle: 20

Station Type Date Time Source
SBPK TAF 2021/03/04 18:37 UTC NOAA

TAF SBPK 041500Z 0418/0518 12010KT 9999 BKN040 TX28/0418Z TN20/0508Z
BECMG 0421/0422 24007KT 8000 TSRA BKN012 FEW025CB
BECMG 0511/0513 9999 NSW SCT007 BKN025
BECMG 0515/0517 21012KT BKN040
RMK PDY

Example: see airport list